createdAt,value
2022-12-08T00:01:39.430Z,99872.38
2022-12-08T00:04:29.171Z,99869.44
2022-12-08T00:07:37.190Z,99874.87
2022-12-08T00:10:48.312Z,99879.63
2022-12-08T00:13:36.609Z,99883.88
2022-12-08T00:16:26.300Z,99884.61
2022-12-08T00:19:15.909Z,99888.83
2022-12-08T00:22:06.205Z,99891.73
2022-12-08T00:24:55.697Z,99892.18
2022-12-08T00:27:45.261Z,99895.20
2022-12-08T00:30:34.842Z,99896.83
2022-12-08T00:33:24.379Z,99899.33
2022-12-08T00:36:14.733Z,99899.83
2022-12-08T00:39:04.355Z,99901.02
2022-12-08T00:42:12.344Z,99901.17
2022-12-08T00:45:01.899Z,99903.96
2022-12-08T00:47:51.454Z,99912.76
2022-12-08T00:50:40.959Z,99907.19
2022-12-08T00:53:31.143Z,99911.81
2022-12-08T00:56:20.807Z,99911.56
2022-12-08T00:59:11.159Z,99911.27
2022-12-08T01:02:00.708Z,99916.80
2022-12-08T01:04:50.224Z,99920.40
2022-12-08T01:07:39.959Z,99924.33
2022-12-08T01:10:29.843Z,99922.73
2022-12-08T01:13:19.726Z,99926.16
2022-12-08T01:16:09.760Z,99925.14
2022-12-08T01:18:59.636Z,99923.96
2022-12-08T01:21:49.155Z,99923.89
2022-12-08T01:24:39.037Z,99927.84
2022-12-08T01:27:28.642Z,99927.11
2022-12-08T01:30:19.050Z,99929.56
2022-12-08T01:33:08.521Z,99925.59
2022-12-08T01:35:59.865Z,99928.25
2022-12-08T01:38:49.800Z,99933.40
2022-12-08T01:41:39.585Z,99938.39
2022-12-08T01:44:51.822Z,99940.73
2022-12-08T01:47:42.791Z,99943.18
2022-12-08T01:50:32.286Z,99947.02
2022-12-08T01:53:23.725Z,99947.76
2022-12-08T01:56:15.219Z,99952.61
2022-12-08T01:59:04.766Z,99957.01
2022-12-08T02:01:54.352Z,99960.58
2022-12-08T02:04:43.941Z,99961.27
2022-12-08T02:07:33.779Z,99957.33
2022-12-08T02:10:24.212Z,99955.49
2022-12-08T02:13:15.540Z,99953.33
2022-12-08T02:16:08.307Z,99958.56
2022-12-08T02:22:25.282Z,99959.99
2022-12-08T02:25:18.092Z,99967.23
2022-12-08T02:28:16.399Z,99970.02
2022-12-08T02:31:11.732Z,99974.00
2022-12-08T02:34:19.272Z,99976.13
2022-12-08T02:37:09.800Z,99981.52
2022-12-08T02:40:02.131Z,99984.83
2022-12-08T02:42:55.309Z,99986.46
2022-12-08T02:45:47.631Z,99987.73
2022-12-08T02:48:37.236Z,99989.20
2022-12-08T02:51:26.801Z,99991.86
2022-12-08T02:54:16.342Z,99995.95
2022-12-08T02:57:18.339Z,99993.22
2022-12-08T03:00:09.520Z,99991.79
2022-12-08T03:03:06.202Z,99992.15
2022-12-08T03:06:00.966Z,99997.48
2022-12-08T03:08:54.880Z,99994.89
2022-12-08T03:11:47.079Z,99994.56
2022-12-08T03:14:36.573Z,99998.65
2022-12-08T03:17:27.708Z,99999.73
2022-12-08T03:20:18.589Z,100001.97
2022-12-08T03:23:09.760Z,99999.11
2022-12-08T03:26:04.191Z,99998.04
2022-12-08T03:28:54.022Z,100008.69
2022-12-08T03:31:45.559Z,100007.16
2022-12-08T03:34:35.077Z,100012.16
2022-12-08T03:37:25.869Z,100019.42
2022-12-08T03:40:17.936Z,100021.96
2022-12-08T03:43:07.456Z,100024.50
2022-12-08T03:45:56.943Z,100029.73
2022-12-08T03:48:46.716Z,100029.08
2022-12-08T03:51:36.301Z,100034.07
2022-12-08T03:54:25.798Z,100033.58
2022-12-08T03:57:15.269Z,100029.36
2022-12-08T04:00:07.432Z,100029.39
2022-12-08T04:02:57.077Z,100033.85
2022-12-08T04:05:47.163Z,100036.70
2022-12-08T04:08:36.614Z,100038.96
2022-12-08T04:11:26.133Z,100038.47
2022-12-08T04:14:15.715Z,100039.46
2022-12-08T04:17:05.197Z,100040.85
2022-12-08T04:19:54.682Z,100047.19
2022-12-08T04:22:44.173Z,100045.96
2022-12-08T04:25:33.989Z,100045.27
2022-12-08T04:28:23.783Z,100043.93
2022-12-08T04:31:13.342Z,100043.34
2022-12-08T04:34:02.887Z,100040.96
2022-12-08T04:36:52.375Z,100036.59
2022-12-08T04:39:41.852Z,100039.41
2022-12-08T04:42:31.351Z,100040.52
2022-12-08T04:45:20.887Z,100045.14
2022-12-08T04:48:12.111Z,100047.96
2022-12-08T04:51:01.636Z,100048.41
2022-12-08T04:53:51.205Z,100046.48
2022-12-08T04:56:41.409Z,100042.37
2022-12-08T04:59:31.149Z,100045.76
2022-12-08T05:02:20.684Z,100045.63
2022-12-08T05:05:10.741Z,100046.52
2022-12-08T05:08:00.405Z,100041.20
2022-12-08T05:10:49.972Z,100041.20
2022-12-08T05:13:39.624Z,100042.44
2022-12-08T05:16:29.224Z,100044.89
2022-12-08T05:19:18.915Z,100047.75
2022-12-08T05:22:08.439Z,100051.14
2022-12-08T05:24:57.970Z,100055.94
2022-12-08T05:27:47.560Z,100052.70
2022-12-08T05:30:37.308Z,100051.14
2022-12-08T05:33:26.891Z,100053.65
2022-12-08T05:36:16.662Z,100054.91
2022-12-08T05:39:06.141Z,100057.77
2022-12-08T05:41:55.951Z,100060.19
2022-12-08T05:44:45.558Z,100064.65
2022-12-08T05:47:36.305Z,100067.50
2022-12-08T05:50:26.974Z,100071.14
2022-12-08T05:53:18.069Z,100068.97
2022-12-08T05:56:08.260Z,100069.34
2022-12-08T05:58:57.758Z,100067.67
2022-12-08T06:01:47.432Z,100073.18
2022-12-08T06:04:37.502Z,100073.88
2022-12-08T06:07:27.096Z,100073.00
2022-12-08T06:10:16.974Z,100069.02
2022-12-08T06:13:06.894Z,100067.91
2022-12-08T06:15:56.408Z,100065.66
2022-12-08T06:18:46.220Z,100069.00
2022-12-08T06:21:35.968Z,100073.64
2022-12-08T06:24:25.711Z,100083.16
2022-12-08T06:27:15.309Z,100085.66
2022-12-08T06:30:06.905Z,100086.92
2022-12-08T06:32:56.612Z,100091.71
2022-12-08T06:35:46.478Z,100100.39
2022-12-08T06:38:39.319Z,100099.90
2022-12-08T06:41:32.846Z,100102.60
2022-12-08T06:44:23.121Z,100106.36
2022-12-08T06:47:12.932Z,100107.62
2022-12-08T06:50:02.825Z,100102.96
2022-12-08T06:53:00.998Z,100104.97
2022-12-08T06:56:01.827Z,100109.45
2022-12-08T06:58:53.053Z,100105.36
2022-12-08T07:01:42.945Z,100103.23
2022-12-08T07:04:33.287Z,100105.04
2022-12-08T07:07:22.784Z,100117.55
2022-12-08T07:10:12.557Z,100120.09
2022-12-08T07:13:02.062Z,100117.23
2022-12-08T07:15:51.655Z,100118.12
2022-12-08T07:18:42.468Z,100115.30
2022-12-08T07:21:32.137Z,100113.39
2022-12-08T07:24:21.927Z,100118.33
2022-12-08T07:27:11.569Z,100120.98
2022-12-08T07:30:01.247Z,100121.15
2022-12-08T07:32:50.951Z,100125.05
2022-12-08T07:35:45.026Z,100125.21
2022-12-08T07:38:38.573Z,100131.83
2022-12-08T07:41:28.441Z,100126.14
2022-12-08T07:44:18.169Z,100132.02
2022-12-08T07:47:07.740Z,100138.41
2022-12-08T07:49:57.388Z,100136.48
2022-12-08T07:52:46.929Z,100136.41
2022-12-08T07:55:40.760Z,100139.10
2022-12-08T07:58:30.350Z,100137.35
2022-12-08T08:01:21.400Z,100139.64
2022-12-08T08:04:11.832Z,100139.11
2022-12-08T08:07:01.380Z,100135.46
2022-12-08T08:09:50.829Z,100143.11
2022-12-08T08:12:40.841Z,100136.41
2022-12-08T08:15:30.457Z,100137.79
2022-12-08T08:18:20.043Z,100137.38
2022-12-08T08:21:43.336Z,100140.94
2022-12-08T08:24:19.771Z,100139.84
2022-12-08T08:27:09.259Z,100135.75
2022-12-08T08:29:58.761Z,100135.42
2022-12-08T08:32:48.775Z,100132.77
2022-12-08T08:35:38.252Z,100136.81
2022-12-08T08:38:28.680Z,100135.17
2022-12-08T08:41:18.198Z,100134.36
2022-12-08T08:44:07.664Z,100132.59
2022-12-08T08:46:57.555Z,100133.27
2022-12-08T08:49:47.476Z,100133.46
2022-12-08T08:52:36.977Z,100128.84
2022-12-08T08:55:26.435Z,100125.20
2022-12-08T08:58:16.329Z,100129.29
2022-12-08T09:01:06.075Z,100128.72
2022-12-08T09:03:55.651Z,100127.52
2022-12-08T09:06:45.177Z,100124.46
2022-12-08T09:09:34.925Z,100123.16
2022-12-08T09:12:24.483Z,100122.67
2022-12-08T09:15:14.297Z,100117.98
2022-12-08T09:18:06.122Z,100118.96
2022-12-08T09:20:55.623Z,100113.23
2022-12-08T09:23:45.514Z,100110.53
2022-12-08T09:26:35.061Z,100104.27
2022-12-08T09:29:25.545Z,100103.14
2022-12-08T09:32:15.697Z,100099.33
2022-12-08T09:35:05.925Z,100100.23
2022-12-08T09:37:55.458Z,100097.38
2022-12-08T09:40:48.331Z,100090.66
2022-12-08T09:43:47.560Z,100088.61
2022-12-08T09:46:37.181Z,100086.15
2022-12-08T09:49:36.740Z,100090.41
2022-12-08T09:52:28.349Z,100084.36
2022-12-08T09:55:22.457Z,100076.36
2022-12-08T09:58:17.862Z,100073.60
2022-12-08T10:01:09.378Z,100076.73
2022-12-08T10:03:59.086Z,100076.96
2022-12-08T10:06:52.362Z,100074.27
2022-12-08T10:09:43.851Z,100074.47
2022-12-08T10:12:36.809Z,100071.45
2022-12-08T10:15:39.748Z,100072.42
2022-12-08T10:18:31.645Z,100065.80
2022-12-08T10:21:22.318Z,100059.81
2022-12-08T10:24:16.182Z,100055.42
2022-12-08T10:27:05.895Z,100051.56
2022-12-08T10:29:55.405Z,100044.67
2022-12-08T10:32:45.695Z,100039.89
2022-12-08T10:35:44.543Z,100037.10
2022-12-08T10:38:35.881Z,100034.29
2022-12-08T10:41:25.489Z,100032.73
2022-12-08T10:44:14.939Z,100028.84
2022-12-08T10:47:13.432Z,100030.15
2022-12-08T10:50:20.230Z,100020.67
2022-12-08T10:53:13.951Z,100018.70
2022-12-08T10:56:15.401Z,100013.55
2022-12-08T10:59:16.324Z,100008.77
2022-12-08T11:02:09.501Z,100006.11
2022-12-08T11:04:59.669Z,100004.18
2022-12-08T11:07:49.653Z,100000.98
2022-12-08T11:10:44.064Z,100001.77
2022-12-08T11:13:33.841Z,99994.56
2022-12-08T11:16:23.403Z,99988.89
2022-12-08T11:19:15.560Z,99985.11
2022-12-08T11:22:07.942Z,99982.58
2022-12-08T11:25:02.151Z,99984.05
2022-12-08T11:27:53.102Z,99983.44
2022-12-08T11:30:45.474Z,99979.70
2022-12-08T11:33:35.089Z,99973.92
2022-12-08T11:36:25.683Z,99973.80
2022-12-08T11:39:15.330Z,99980.55
2022-12-08T11:42:05.641Z,99981.17
2022-12-08T11:44:57.322Z,99980.02
2022-12-08T11:47:55.462Z,99986.70
2022-12-08T11:50:47.689Z,99986.82
2022-12-08T11:53:41.679Z,99975.04
2022-12-08T11:56:33.741Z,99977.66
2022-12-08T11:59:26.585Z,99975.21
2022-12-08T12:02:17.251Z,99971.08
2022-12-08T12:05:09.390Z,99980.77
2022-12-08T12:08:05.767Z,99974.80
2022-12-08T12:11:01.015Z,99972.77
2022-12-08T12:13:59.735Z,99978.36
2022-12-08T12:16:57.256Z,99976.36
2022-12-08T12:19:46.896Z,99971.45
2022-12-08T12:22:36.492Z,99969.03
2022-12-08T12:25:26.327Z,99966.66
2022-12-08T12:28:16.048Z,99965.98
2022-12-08T12:31:07.074Z,99967.48
2022-12-08T12:34:05.427Z,99967.16
2022-12-08T12:36:56.647Z,99963.48
2022-12-08T12:39:55.504Z,99963.49
2022-12-08T12:42:47.610Z,99962.88
2022-12-08T12:45:42.871Z,99966.31
2022-12-08T12:48:32.921Z,99965.66
2022-12-08T12:51:45.487Z,99964.85
2022-12-08T12:54:35.262Z,99961.69
2022-12-08T12:57:25.451Z,99960.70
2022-12-08T13:00:20.180Z,99959.94
2022-12-08T13:03:14.283Z,99954.74
2022-12-08T13:06:04.131Z,99949.09
2022-12-08T13:08:55.523Z,99953.08
2022-12-08T13:11:50.736Z,99952.50
2022-12-08T13:14:46.345Z,99954.79
2022-12-08T13:17:40.197Z,99950.70
2022-12-08T13:20:29.808Z,99947.42
2022-12-08T13:23:41.322Z,99944.65
2022-12-08T13:26:30.818Z,99942.80
2022-12-08T13:29:23.706Z,99942.11
2022-12-08T13:33:16.852Z,99944.40
2022-12-08T13:36:21.083Z,99957.13
2022-12-08T13:39:14.888Z,99958.64
2022-12-08T13:42:06.184Z,99957.53
2022-12-08T13:45:21.428Z,99961.45
2022-12-08T13:49:09.577Z,99958.73
2022-12-08T13:53:34.142Z,99954.92
2022-12-08T13:55:19.689Z,99962.36
2022-12-08T13:57:44.961Z,99963.02
2022-12-08T14:00:34.824Z,99958.43
2022-12-08T14:03:24.525Z,99952.39
2022-12-08T14:06:16.898Z,99945.88
2022-12-08T14:09:11.046Z,99946.08
2022-12-08T14:12:02.802Z,99947.38
2022-12-08T14:15:08.350Z,99948.77
2022-12-08T14:17:58.151Z,99948.96
2022-12-08T14:21:19.480Z,99955.02
2022-12-08T14:24:01.655Z,99953.07
2022-12-08T14:26:53.108Z,99952.98
2022-12-08T14:29:44.185Z,99963.22
2022-12-08T14:32:34.811Z,99961.17
2022-12-08T14:35:25.802Z,99965.95
2022-12-08T14:38:16.110Z,99960.64
2022-12-08T14:41:06.613Z,99964.08
2022-12-08T14:44:02.594Z,99963.50
2022-12-08T14:47:06.002Z,99960.27
2022-12-08T14:49:56.554Z,99958.14
2022-12-08T14:52:46.106Z,99965.75
2022-12-08T14:55:36.429Z,99964.05
2022-12-08T14:58:27.727Z,99965.71
2022-12-08T15:01:21.147Z,99967.73
2022-12-08T15:04:15.626Z,99966.86
2022-12-08T15:07:07.267Z,99965.79
2022-12-08T15:10:19.930Z,99963.05
2022-12-08T15:13:21.914Z,99965.83
2022-12-08T15:16:27.245Z,99961.73
2022-12-08T15:19:19.497Z,99962.20
2022-12-08T15:22:12.215Z,99961.49
2022-12-08T15:25:01.812Z,99961.45
2022-12-08T15:27:52.619Z,99959.90
2022-12-08T15:30:42.118Z,99958.09
2022-12-08T15:33:31.846Z,99953.80
2022-12-08T15:36:21.483Z,99952.41
2022-12-08T15:39:24.415Z,99956.05
2022-12-08T15:42:13.951Z,99952.29
2022-12-08T15:45:03.984Z,99953.15
2022-12-08T15:47:53.795Z,99951.55
2022-12-08T15:50:43.357Z,99954.30
2022-12-08T15:53:33.064Z,99950.77
2022-12-08T15:56:29.594Z,99950.98
2022-12-08T15:59:20.207Z,99949.02
2022-12-08T16:02:11.043Z,99953.67
2022-12-08T16:05:40.268Z,99951.59
2022-12-08T16:08:44.686Z,99948.89
2022-12-08T16:12:10.640Z,99945.29
2022-12-08T16:18:03.391Z,99950.94
2022-12-08T16:24:08.933Z,99950.19
2022-12-08T16:27:58.869Z,99948.36
2022-12-08T16:30:12.065Z,99950.98
2022-12-08T16:33:01.648Z,99950.70
2022-12-08T16:35:51.429Z,99950.98
2022-12-08T16:38:40.935Z,99950.46
2022-12-08T16:41:48.847Z,99952.21
2022-12-08T16:44:40.078Z,99951.23
2022-12-08T16:47:30.011Z,99951.18
2022-12-08T16:50:21.553Z,99949.79
2022-12-08T16:53:12.145Z,99944.72
2022-12-08T16:56:01.805Z,99940.59
2022-12-08T16:58:51.378Z,99943.83
2022-12-08T17:01:40.945Z,99944.72
2022-12-08T17:04:32.609Z,99941.02
2022-12-08T17:07:22.580Z,99936.97
2022-12-08T17:10:14.709Z,99939.67
2022-12-08T17:13:04.241Z,99940.61
2022-12-08T17:15:53.912Z,99942.17
2022-12-08T17:18:43.349Z,99944.09
2022-12-08T17:21:32.874Z,99942.20
2022-12-08T17:24:23.097Z,99940.38
2022-12-08T17:27:12.588Z,99943.55
2022-12-08T17:30:02.444Z,99938.06
2022-12-08T17:32:52.572Z,99938.11
2022-12-08T17:35:47.353Z,99938.16
2022-12-08T17:38:36.813Z,99935.80
2022-12-08T17:41:26.245Z,99936.58
2022-12-08T17:44:17.173Z,99939.08
2022-12-08T17:47:06.777Z,99940.23
2022-12-08T17:49:56.372Z,99941.25
2022-12-08T17:52:46.087Z,99938.52
2022-12-08T17:55:35.575Z,99942.20
2022-12-08T17:58:25.462Z,99940.04
2022-12-08T18:01:15.013Z,99939.14
2022-12-08T18:04:04.879Z,99944.11
2022-12-08T18:06:54.284Z,99942.14
2022-12-08T18:09:43.758Z,99934.41
2022-12-08T18:12:33.188Z,99930.71
2022-12-08T18:15:22.685Z,99933.83
2022-12-08T18:18:12.209Z,99933.63
2022-12-08T18:21:01.618Z,99936.25
2022-12-08T18:23:51.236Z,99935.72
2022-12-08T18:26:40.767Z,99928.69
2022-12-08T18:29:30.243Z,99925.46
2022-12-08T18:32:22.875Z,99916.41
2022-12-08T18:35:12.783Z,99917.31
2022-12-08T18:38:02.236Z,99917.57
2022-12-08T18:40:51.674Z,99920.88
2022-12-08T18:43:41.078Z,99918.66
2022-12-08T18:46:30.942Z,99922.47
2022-12-08T18:49:20.342Z,99921.61
2022-12-08T18:52:09.813Z,99924.84
2022-12-08T18:55:07.424Z,99923.58
2022-12-08T18:57:57.197Z,99920.89
2022-12-08T19:00:46.639Z,99922.32
2022-12-08T19:03:36.183Z,99924.77
2022-12-08T19:06:25.683Z,99924.56
2022-12-08T19:09:15.290Z,99921.14
2022-12-08T19:12:05.245Z,99916.67
2022-12-08T19:14:54.792Z,99920.15
2022-12-08T19:17:44.551Z,99921.84
2022-12-08T19:20:34.100Z,99920.72
2022-12-08T19:23:23.537Z,99923.05
2022-12-08T19:26:13.061Z,99920.19
2022-12-08T19:29:02.527Z,99924.20
2022-12-08T19:31:52.032Z,99922.80
2022-12-08T19:34:42.438Z,99919.83
2022-12-08T19:37:32.130Z,99921.54
2022-12-08T19:40:40.121Z,99921.34
2022-12-08T19:43:47.124Z,99921.20
2022-12-08T19:46:40.400Z,99922.95
2022-12-08T19:49:30.499Z,99919.60
2022-12-08T19:52:19.890Z,99913.80
2022-12-08T19:55:10.633Z,99912.01
2022-12-08T19:58:01.557Z,99908.16
2022-12-08T20:00:51.025Z,99906.52
2022-12-08T20:03:40.567Z,99907.21
2022-12-08T20:06:30.438Z,99908.15
2022-12-08T20:09:19.963Z,99904.92
2022-12-08T20:12:09.505Z,99900.19
2022-12-08T20:14:59.115Z,99895.76
2022-12-08T20:17:48.721Z,99903.00
2022-12-08T20:20:38.785Z,99905.45
2022-12-08T20:23:28.167Z,99905.55
2022-12-08T20:26:19.112Z,99914.98
2022-12-08T20:29:08.582Z,99917.19
2022-12-08T20:31:58.143Z,99914.20
2022-12-08T20:34:47.631Z,99913.48
2022-12-08T20:37:37.106Z,99916.09
2022-12-08T20:40:26.677Z,99918.20
2022-12-08T20:43:16.136Z,99922.07
2022-12-08T20:46:07.771Z,99919.07
2022-12-08T20:49:00.565Z,99916.88
2022-12-08T20:51:50.166Z,99918.22
2022-12-08T20:54:39.567Z,99920.52
2022-12-08T20:57:29.280Z,99921.71
2022-12-08T21:00:20.831Z,99920.85
2022-12-08T21:03:10.976Z,99924.20
2022-12-08T21:06:00.502Z,99923.18
2022-12-08T21:08:50.377Z,99920.52
2022-12-08T21:11:39.946Z,99922.98
2022-12-08T21:14:29.690Z,99928.26
2022-12-08T21:17:19.494Z,99929.48
2022-12-08T21:20:10.709Z,99927.39
2022-12-08T21:23:01.800Z,99928.77
2022-12-08T21:25:52.786Z,99935.09
2022-12-08T21:28:42.932Z,99932.54
2022-12-08T21:31:37.503Z,99930.38
2022-12-08T21:34:31.122Z,99933.81
2022-12-08T21:37:20.758Z,99935.29
2022-12-08T21:40:12.636Z,99939.91
2022-12-08T21:43:03.109Z,99932.71
2022-12-08T21:45:52.710Z,99924.77
2022-12-08T21:48:43.210Z,99928.80
2022-12-08T21:51:34.838Z,99925.19
2022-12-08T21:54:24.489Z,99928.95
2022-12-08T21:57:14.699Z,99925.48
2022-12-08T22:00:06.613Z,99926.13
2022-12-08T22:02:57.124Z,99921.64
2022-12-08T22:05:47.018Z,99921.91
2022-12-08T22:08:36.850Z,99922.94
2022-12-08T22:11:26.659Z,99922.52
2022-12-08T22:14:16.184Z,99924.09
2022-12-08T22:17:05.784Z,99927.69
2022-12-08T22:19:55.408Z,99929.81
2022-12-08T22:22:46.459Z,99929.04
2022-12-08T22:25:36.134Z,99929.36
2022-12-08T22:28:25.708Z,99931.98
2022-12-08T22:31:16.130Z,99934.92
2022-12-08T22:34:05.725Z,99937.79
2022-12-08T22:36:55.331Z,99940.12
2022-12-08T22:39:45.007Z,99945.31
2022-12-08T22:42:34.646Z,99944.17
2022-12-08T22:45:24.780Z,99938.84
2022-12-08T22:48:14.392Z,99943.48
2022-12-08T22:51:04.055Z,99942.98
2022-12-08T22:53:53.690Z,99944.45
2022-12-08T22:56:43.344Z,99944.38
2022-12-08T22:59:33.882Z,99941.55
2022-12-08T23:02:23.384Z,99940.56
2022-12-08T23:05:13.114Z,99944.09
2022-12-08T23:08:02.963Z,99946.65
2022-12-08T23:10:53.360Z,99947.80
2022-12-08T23:13:42.747Z,99945.19
2022-12-08T23:16:33.045Z,99951.03
2022-12-08T23:19:23.002Z,99953.05
2022-12-08T23:22:12.571Z,99951.24
2022-12-08T23:25:02.047Z,99953.77
2022-12-08T23:27:51.403Z,99954.52
2022-12-08T23:30:41.336Z,99953.33
2022-12-08T23:33:31.414Z,99958.16
2022-12-08T23:36:21.369Z,99961.02
2022-12-08T23:39:11.540Z,99961.19
2022-12-08T23:42:01.021Z,99964.02
2022-12-08T23:44:50.808Z,99965.28
2022-12-08T23:47:40.282Z,99962.00
2022-12-08T23:50:29.714Z,99958.52
2022-12-08T23:53:19.347Z,99959.54
2022-12-08T23:56:11.190Z,99964.73
2022-12-08T23:59:02.021Z,99964.17
